Time;durP1;ratioP1;P1;durP2;ratioP2;P2;SDS_P1;SDS_P2;PMS_P1;PMS_P2;Temp;Humidity;BMP_temperature;BMP_pressure;BME280_temperature;BME280_humidity;BME280_pressure;Samples;Min_cycle;Max_cycle;Signal;HPM_P1;HPM_P2
2022/06/05 00:00:18;;;;;;;4.65;2.17;;;;;;;26.25;66.05;98251.50;5371680;26;20060;-79
2022/06/05 00:02:54;;;;;;;5.30;1.60;;;;;;;26.01;66.03;98246.94;5391886;26;20058;-79
2022/06/05 00:05:34;;;;;;;5.85;1.55;;;;;;;26.73;63.32;98244.72;5391517;26;20059;-79
2022/06/05 00:08:16;;;;;;;4.47;1.80;;;;;;;26.55;63.87;98239.56;5371860;26;20122;-79
2022/06/05 00:10:55;;;;;;;4.70;1.60;;;;;;;26.07;65.66;98230.44;5371487;26;20414;-79
2022/06/05 00:13:34;;;;;;;4.60;1.80;;;;;;;26.31;65.87;98236.81;5371846;26;20051;-79
2022/06/05 00:16:01;;;;;;;4.62;1.80;;;;;;;27.08;61.87;98236.50;5391419;26;20048;-79
2022/06/05 00:18:33;;;;;;;4.97;1.80;;;;;;;26.88;62.29;98239.59;5391147;26;20060;-79
2022/06/05 00:21:00;;;;;;;4.12;1.58;;;;;;;25.94;65.48;98245.91;5391704;26;20139;-79
2022/06/05 00:23:27;;;;;;;8.40;1.90;;;;;;;25.62;66.83;98254.44;5391747;26;20095;-79
2022/06/05 00:26:02;;;;;;;3.62;1.80;;;;;;;24.65;70.36;98254.41;5391394;26;20063;-79
2022/06/05 00:29:00;;;;;;;2.83;1.40;;;;;;;24.23;72.21;98255.72;5371687;26;20074;-79
2022/06/05 00:31:44;;;;;;;4.05;1.70;;;;;;;23.74;74.35;98258.72;5391754;26;20392;-79
2022/06/05 00:34:11;;;;;;;4.65;1.70;;;;;;;23.97;73.92;98251.28;5371964;26;20091;-79
2022/06/05 00:36:56;;;;;;;4.12;1.52;;;;;;;24.35;72.12;98243.25;5391599;26;20138;-79
2022/06/05 00:39:36;;;;;;;4.07;1.85;;;;;;;24.55;71.24;98235.19;5391224;26;20469;-79
2022/06/05 00:42:12;;;;;;;3.80;1.60;;;;;;;24.43;71.47;98235.38;5371714;26;20063;-79
2022/06/05 00:44:43;;;;;;;4.28;1.73;;;;;;;23.46;75.68;98226.16;5391752;26;20127;-79
2022/06/05 00:47:16;;;;;;;3.50;1.62;;;;;;;23.72;74.43;98226.44;5391419;26;20383;-79
2022/06/05 00:49:54;;;;;;;4.05;1.55;;;;;;;24.07;72.79;98218.63;5391472;26;20063;-78
2022/06/05 00:52:23;;;;;;;8.07;1.60;;;;;;;24.60;70.65;98227.66;5371741;26;20055;-79
2022/06/05 00:54:51;;;;;;;4.53;1.83;;;;;;;24.94;69.15;98227.81;5391319;26;20055;-79
2022/06/05 00:57:18;;;;;;;3.97;1.60;;;;;;;24.50;70.43;98225.09;5391577;26;20095;-79
2022/06/05 00:59:47;;;;;;;3.72;1.55;;;;;;;24.14;71.77;98218.91;5391464;26;20457;-79
2022/06/05 01:02:14;;;;;;;3.85;1.75;;;;;;;23.45;74.53;98221.88;5391394;26;20120;-79
2022/06/05 01:04:44;;;;;;;3.08;1.73;;;;;;;23.63;74.25;98207.88;5371859;26;20449;-79
2022/06/05 01:07:11;;;;;;;3.83;1.40;;;;;;;24.05;72.48;98201.31;5371171;26;20560;-79
2022/06/05 01:09:40;;;;;;;4.68;1.62;;;;;;;24.17;71.81;98208.88;5391338;26;20124;-79
2022/06/05 01:12:22;;;;;;;3.80;1.55;;;;;;;23.95;72.20;98210.09;5371706;26;20364;-79
2022/06/05 01:15:03;;;;;;;2.42;1.40;;;;;;;23.51;74.33;98208.16;5371094;26;20052;-79
2022/06/05 01:18:08;;;;;;;4.70;1.80;;;;;;;22.75;76.86;98201.00;5391474;26;20044;-79
2022/06/05 01:20:54;;;;;;;5.95;1.90;;;;;;;22.85;76.88;98187.03;5375961;26;20111;-79
2022/06/05 01:23:33;;;;;;;5.57;1.62;;;;;;;23.09;76.90;98197.97;5371817;26;20059;-79
2022/06/05 01:26:27;;;;;;;6.90;1.90;;;;;;;23.22;75.43;98192.41;5391561;26;20111;-79
2022/06/05 01:29:02;;;;;;;4.55;1.80;;;;;;;23.82;72.84;98196.44;5370792;26;20102;-79
2022/06/05 01:31:48;;;;;;;4.68;1.98;;;;;;;21.81;80.71;98210.19;5391638;26;20060;-79
2022/06/05 01:34:43;;;;;;;5.32;1.80;;;;;;;22.38;78.87;98213.16;5371556;26;20118;-79
2022/06/05 01:37:16;;;;;;;4.68;1.80;;;;;;;23.70;73.45;98205.47;5368371;26;20314;-79
2022/06/05 01:40:11;;;;;;;4.40;2.08;;;;;;;24.18;71.59;98221.09;5371413;26;20099;-79
2022/06/05 01:42:41;;;;;;;6.05;1.90;;;;;;;23.66;72.43;98233.91;5371263;26;20090;-79
2022/06/05 01:45:12;;;;;;;6.65;1.90;;;;;;;23.86;71.13;98212.78;5371492;26;20383;-79
2022/06/05 01:47:41;;;;;;;6.68;2.40;;;;;;;23.99;71.78;98208.00;5391483;26;20067;-79
2022/06/05 01:50:17;;;;;;;6.97;2.08;;;;;;;22.89;76.13;98212.94;5390997;26;20051;-79
2022/06/05 01:52:53;;;;;;;7.00;2.23;;;;;;;23.88;72.46;98211.66;5371561;26;20064;-79
2022/06/05 01:55:24;;;;;;;5.70;2.33;;;;;;;23.91;72.21;98210.50;5391569;26;20075;-79
2022/06/05 01:57:52;;;;;;;5.10;2.42;;;;;;;24.38;70.19;98198.09;5390978;26;20047;-79
2022/06/05 02:00:21;;;;;;;5.85;2.55;;;;;;;25.14;67.54;98202.94;5371333;26;20047;-79
2022/06/05 02:02:55;;;;;;;5.07;2.20;;;;;;;25.14;67.30;98207.41;5390869;26;20211;-79
2022/06/05 02:05:37;;;;;;;6.70;2.62;;;;;;;26.18;63.29;98209.00;5391110;26;20055;-79
2022/06/05 02:08:19;;;;;;;5.55;2.50;;;;;;;25.81;64.14;98203.22;5391479;26;20781;-79
2022/06/05 02:10:55;;;;;;;4.10;2.20;;;;;;;25.84;64.06;98203.75;5391282;26;20058;-79
2022/06/05 02:13:22;;;;;;;7.90;2.73;;;;;;;25.81;63.73;98211.16;5391522;26;20426;-79
2022/06/05 02:15:49;;;;;;;6.50;2.22;;;;;;;25.08;66.85;98214.09;5391059;26;20115;-79
2022/06/05 02:18:16;;;;;;;6.32;2.67;;;;;;;24.98;67.00;98216.78;5390871;26;20048;-79
2022/06/05 02:20:44;;;;;;;6.75;2.58;;;;;;;25.49;65.88;98217.03;5391232;26;20454;-79
2022/06/05 02:23:14;;;;;;;8.23;2.90;;;;;;;25.44;66.18;98216.69;5391320;26;20469;-79
2022/06/05 02:25:41;;;;;;;8.55;2.90;;;;;;;25.76;65.09;98201.06;5370969;26;20414;-79
2022/06/05 02:28:14;;;;;;;8.68;3.35;;;;;;;25.04;67.66;98207.47;5391085;26;20118;-79
2022/06/05 02:30:48;;;;;;;11.48;3.50;;;;;;;25.15;67.57;98195.84;5391136;26;20064;-79
2022/06/05 02:33:30;;;;;;;8.38;3.35;;;;;;;25.22;67.57;98204.81;5370965;26;20063;-79
2022/06/05 02:36:01;;;;;;;10.32;3.70;;;;;;;25.38;66.67;98205.75;5391457;26;20103;-79
2022/06/05 02:38:39;;;;;;;11.80;3.60;;;;;;;25.46;66.30;98212.06;5390886;26;20071;-79
2022/06/05 02:41:15;;;;;;;7.18;3.33;;;;;;;25.84;65.01;98205.53;5391338;26;20103;-79
2022/06/05 02:44:31;;;;;;;7.40;3.40;;;;;;;25.19;67.47;98205.94;5391400;26;20114;-79
2022/06/05 02:47:26;;;;;;;6.53;3.22;;;;;;;26.02;64.59;98200.16;5373301;26;20185;-79
2022/06/05 02:50:10;;;;;;;7.95;3.30;;;;;;;25.97;64.57;98208.59;5391225;26;20453;-79
2022/06/05 02:52:38;;;;;;;9.73;4.25;;;;;;;25.65;65.11;98206.59;5370807;26;20063;-79
2022/06/05 02:55:12;;;;;;;7.32;3.55;;;;;;;24.95;68.10;98213.62;5391094;26;20113;-79
2022/06/05 02:57:39;;;;;;;9.98;3.40;;;;;;;24.66;69.11;98213.84;5390992;26;20066;-79
2022/06/05 03:00:12;;;;;;;7.30;3.65;;;;;;;26.12;64.04;98214.09;5390567;26;20108;-79
2022/06/05 03:05:25;;;;;;;7.07;3.50;;;;;;;26.00;63.78;98216.19;5391314;26;20114;-79
2022/06/05 03:07:52;;;;;;;9.23;3.80;;;;;;;25.78;64.22;98217.59;5390620;26;20138;-79
2022/06/05 03:10:18;;;;;;;8.02;3.97;;;;;;;25.90;63.95;98210.19;5390945;26;20457;-79
2022/06/05 03:12:45;;;;;;;10.80;3.92;;;;;;;26.32;62.26;98222.59;5391009;26;20051;-79
2022/06/05 03:15:15;;;;;;;8.13;3.60;;;;;;;26.13;61.98;98226.31;5391197;26;20388;-79
2022/06/05 03:17:42;;;;;;;8.85;3.85;;;;;;;26.62;60.52;98224.69;5391855;26;20364;-79
2022/06/05 03:20:12;;;;;;;9.15;4.22;;;;;;;26.37;61.64;98223.81;5391789;26;20115;-79
2022/06/05 03:22:39;;;;;;;10.63;4.37;;;;;;;25.62;64.57;98228.00;5391995;26;20047;-79
2022/06/05 03:25:07;;;;;;;9.63;4.53;;;;;;;25.67;64.39;98223.94;5391927;26;20073;-79
2022/06/05 03:27:34;;;;;;;11.05;4.20;;;;;;;25.65;65.33;98233.00;5371432;26;20080;-79
2022/06/05 03:30:01;;;;;;;8.98;4.15;;;;;;;26.22;64.03;98231.50;5391830;26;20477;-79
2022/06/05 03:32:30;;;;;;;11.57;4.87;;;;;;;26.00;64.96;98241.81;5372043;26;20065;-79
2022/06/05 03:34:57;;;;;;;7.87;4.15;;;;;;;25.72;66.24;98241.97;5391456;26;20118;-79
2022/06/05 03:37:23;;;;;;;9.10;4.53;;;;;;;26.85;61.75;98254.00;5391708;26;20060;-80
2022/06/05 03:39:51;;;;;;;10.40;4.57;;;;;;;26.27;64.23;98243.41;5371714;26;20052;-79
2022/06/05 03:42:18;;;;;;;8.77;4.35;;;;;;;26.32;64.94;98249.03;5391455;26;20104;-79
2022/06/05 03:44:45;;;;;;;7.60;4.03;;;;;;;27.05;61.97;98251.91;5371696;26;20118;-80
2022/06/05 03:47:12;;;;;;;8.65;4.85;;;;;;;26.80;61.94;98254.50;5391913;26;20066;-80
2022/06/05 03:49:39;;;;;;;10.73;4.28;;;;;;;25.08;67.08;98251.88;5391392;26;20504;-79
2022/06/05 03:52:07;;;;;;;9.77;4.37;;;;;;;25.78;65.16;98251.12;5391929;26;20414;-79
2022/06/05 03:54:35;;;;;;;9.40;4.37;;;;;;;26.33;63.69;98256.00;5391899;26;20480;-80
2022/06/05 03:57:03;;;;;;;8.52;4.03;;;;;;;26.51;62.72;98262.03;5391380;26;20122;-79
2022/06/05 03:59:30;;;;;;;9.88;4.03;;;;;;;26.70;62.15;98259.12;5391491;26;20127;-80
2022/06/05 04:01:57;;;;;;;7.72;3.92;;;;;;;25.55;65.83;98254.25;5392002;26;20054;-80
2022/06/05 04:04:25;;;;;;;8.32;4.32;;;;;;;26.35;63.55;98257.47;5391517;26;20059;-79
2022/06/05 04:06:51;;;;;;;9.32;4.03;;;;;;;26.18;64.52;98263.72;5391816;26;20116;-79
2022/06/05 04:09:18;;;;;;;9.65;4.03;;;;;;;26.63;62.64;98267.88;5391145;26;20111;-80
2022/06/05 04:11:45;;;;;;;9.25;4.18;;;;;;;27.30;60.04;98261.50;5391854;26;20098;-80
2022/06/05 04:14:12;;;;;;;8.82;4.50;;;;;;;28.70;55.70;98258.31;5391452;26;20076;-80
2022/06/05 04:16:41;;;;;;;8.25;3.92;;;;;;;29.19;53.95;98263.31;5371561;26;20139;-80
2022/06/05 04:19:08;;;;;;;7.37;4.00;;;;;;;28.36;55.58;98261.31;5371477;26;20108;-80
2022/06/05 04:21:37;;;;;;;10.30;4.07;;;;;;;27.14;58.96;98266.00;5391705;26;20051;-80
2022/06/05 04:24:04;;;;;;;8.73;4.20;;;;;;;26.24;63.02;98268.34;5391367;26;20351;-79
2022/06/05 04:26:33;;;;;;;8.73;4.60;;;;;;;25.56;65.46;98263.00;5391436;26;20443;-79
2022/06/05 04:29:01;;;;;;;8.75;4.00;;;;;;;25.43;66.14;98268.69;5391437;26;20095;-80
2022/06/05 04:31:31;;;;;;;11.68;4.20;;;;;;;25.64;65.35;98266.53;5371349;26;20470;-79
2022/06/05 04:34:00;;;;;;;7.90;4.10;;;;;;;25.70;65.32;98266.91;5371686;26;20064;-80
2022/06/05 04:36:27;;;;;;;8.02;4.20;;;;;;;27.07;60.51;98273.75;5391749;26;20421;-80
2022/06/05 04:38:54;;;;;;;8.77;4.00;;;;;;;28.75;55.41;98271.06;5391114;26;20108;-80
2022/06/05 04:41:24;;;;;;;7.18;3.55;;;;;;;28.99;54.07;98276.25;5391810;26;20119;-80
2022/06/05 04:43:51;;;;;;;7.00;3.67;;;;;;;30.90;49.38;98277.44;5371767;26;20680;-80
2022/06/05 04:46:20;;;;;;;7.78;3.60;;;;;;;30.91;48.14;98279.06;5391371;26;20066;-80
2022/06/05 04:48:47;;;;;;;9.90;3.72;;;;;;;31.49;46.87;98276.38;5391514;26;20066;-80
2022/06/05 04:51:15;;;;;;;7.72;3.85;;;;;;;32.47;44.95;98288.72;5391848;26;20104;-80
2022/06/05 04:53:43;;;;;;;6.72;3.65;;;;;;;33.06;43.15;98283.56;5371389;26;20385;-80
2022/06/05 04:56:16;;;;;;;9.32;3.72;;;;;;;33.89;40.21;98272.50;5391784;26;20116;-80
2022/06/05 04:58:43;;;;;;;8.48;3.30;;;;;;;33.67;40.82;98285.25;5390915;26;20111;-80
2022/06/05 05:01:12;;;;;;;6.25;3.40;;;;;;;34.27;39.48;98285.19;5391648;26;20054;-80
2022/06/05 05:03:39;;;;;;;8.32;3.40;;;;;;;35.17;37.79;98284.16;5391663;26;20421;-80
2022/06/05 05:06:07;;;;;;;8.98;3.60;;;;;;;35.85;36.55;98288.78;5371225;26;20459;-80
2022/06/05 05:08:34;;;;;;;7.05;3.50;;;;;;;34.22;39.00;98289.31;5391329;26;20108;-80
2022/06/05 05:11:01;;;;;;;7.57;3.87;;;;;;;33.50;40.37;98278.72;5391599;26;20079;-80
2022/06/05 05:13:28;;;;;;;8.07;3.80;;;;;;;33.14;41.66;98279.88;5391179;26;20115;-80
2022/06/05 05:15:56;;;;;;;6.70;3.92;;;;;;;29.78;50.88;98283.94;5391374;26;20073;-80
2022/06/05 05:18:24;;;;;;;9.90;4.18;;;;;;;30.49;49.02;98285.13;5391331;26;20048;-80
2022/06/05 05:20:51;;;;;;;6.90;4.00;;;;;;;31.05;47.53;98280.03;5391151;26;20115;-80
2022/06/05 05:23:21;;;;;;;9.45;4.10;;;;;;;30.94;47.05;98292.00;5391581;26;20055;-80
2022/06/05 05:25:48;;;;;;;8.35;4.15;;;;;;;30.68;48.52;98286.41;5391548;26;20111;-80
2022/06/05 05:28:16;;;;;;;8.20;4.18;;;;;;;31.99;45.91;98290.47;5391084;26;20075;-80
2022/06/05 05:30:44;;;;;;;9.23;4.50;;;;;;;31.53;46.81;98294.44;5391581;26;20054;-80
2022/06/05 05:33:12;;;;;;;10.38;4.18;;;;;;;32.93;43.50;98290.75;5391532;26;20056;-80
2022/06/05 05:35:40;;;;;;;8.85;4.50;;;;;;;34.76;39.40;98292.59;5391177;26;20515;-80
2022/06/05 05:38:07;;;;;;;9.73;4.90;;;;;;;34.88;39.14;98285.59;5391173;26;20127;-80
2022/06/05 05:43:19;;;;;;;9.38;4.50;;;;;;;35.73;36.13;98294.06;5391630;26;20111;-80
2022/06/05 05:45:46;;;;;;;9.80;4.35;;;;;;;34.43;38.55;98284.72;5391516;26;20405;-80
2022/06/05 05:48:13;;;;;;;9.07;4.37;;;;;;;35.67;36.48;98289.56;5390812;26;20048;-80
2022/06/05 05:50:44;;;;;;;9.05;4.40;;;;;;;36.61;34.83;98285.69;5391425;26;20358;-80
2022/06/05 05:53:11;;;;;;;9.60;4.50;;;;;;;37.11;33.83;98282.72;5391326;26;20659;-81
2022/06/05 05:55:38;;;;;;;8.75;4.62;;;;;;;36.69;34.20;98280.00;5391024;26;20111;-81
2022/06/05 05:58:05;;;;;;;9.63;4.40;;;;;;;36.34;35.00;98278.97;5391118;26;20111;-81
2022/06/05 06:00:33;;;;;;;8.60;4.60;;;;;;;36.47;35.16;98271.63;5371262;26;20078;-80
2022/06/05 06:03:00;;;;;;;9.07;4.50;;;;;;;36.41;34.64;98269.00;5390988;26;20447;-80
2022/06/05 06:05:34;;;;;;;9.80;4.78;;;;;;;36.59;34.54;98270.84;5391511;26;20070;-80
2022/06/05 06:08:01;;;;;;;8.15;4.57;;;;;;;37.19;33.43;98263.56;5391199;26;20066;-81
2022/06/05 06:10:28;;;;;;;9.82;4.70;;;;;;;37.97;31.98;98265.19;5390961;26;20103;-81
2022/06/05 06:12:55;;;;;;;8.80;4.53;;;;;;;38.57;31.46;98272.91;5391208;26;20106;-81
2022/06/05 06:15:22;;;;;;;9.52;4.87;;;;;;;38.70;30.74;98278.03;5390916;26;20060;-81
2022/06/05 06:17:49;;;;;;;9.95;4.68;;;;;;;37.87;31.02;98273.03;5352194;26;20062;-81
2022/06/05 06:20:16;;;;;;;9.60;4.80;;;;;;;36.87;33.36;98273.78;5391339;26;20321;-80
2022/06/05 06:22:43;;;;;;;8.93;4.80;;;;;;;36.53;33.99;98277.13;5390940;26;20114;-81
2022/06/05 06:25:11;;;;;;;9.95;5.10;;;;;;;35.56;35.79;98271.50;5391457;26;20114;-81
2022/06/05 06:27:39;;;;;;;9.13;5.37;;;;;;;32.17;41.86;98261.44;5391240;26;20099;-80
2022/06/05 06:30:10;;;;;;;10.65;5.35;;;;;;;31.06;45.09;98252.38;5390945;26;20051;-80
2022/06/05 06:32:37;;;;;;;9.38;5.10;;;;;;;30.89;45.69;98246.47;5391361;26;20056;-80
2022/06/05 06:35:04;;;;;;;9.02;5.10;;;;;;;30.11;48.02;98249.84;5391245;26;20056;-80
2022/06/05 06:37:31;;;;;;;10.35;5.05;;;;;;;29.20;50.79;98248.19;5390622;26;20061;-80
2022/06/05 06:39:58;;;;;;;9.95;4.93;;;;;;;30.22;47.74;98258.19;5391020;26;20123;-80
2022/06/05 06:42:25;;;;;;;9.18;5.12;;;;;;;30.27;48.43;98254.97;5391211;26;20056;-80
2022/06/05 06:44:52;;;;;;;8.57;4.87;;;;;;;30.83;46.37;98252.53;5390854;26;20118;-80
2022/06/05 06:47:19;;;;;;;10.82;6.70;;;;;;;31.60;45.67;98250.00;5391084;26;20047;-80
2022/06/05 06:49:46;;;;;;;12.25;6.80;;;;;;;30.25;47.85;98256.97;5390644;26;20454;-80
2022/06/05 06:52:14;;;;;;;12.50;6.82;;;;;;;29.00;51.57;98258.47;5390687;26;20137;-80
2022/06/05 06:54:41;;;;;;;12.82;7.57;;;;;;;27.98;55.11;98251.50;5371191;26;20478;-80
2022/06/05 06:57:09;;;;;;;12.95;8.52;;;;;;;27.13;56.75;98243.97;5391173;26;20048;-80
2022/06/05 06:59:36;;;;;;;12.85;7.70;;;;;;;27.48;57.28;98250.75;5390590;26;20079;-80
2022/06/05 07:02:03;;;;;;;11.70;7.53;;;;;;;27.92;56.62;98256.47;5390957;26;20110;-80
2022/06/05 07:04:30;;;;;;;13.82;7.95;;;;;;;27.69;55.50;98250.25;5371083;26;20075;-80
2022/06/05 07:06:57;;;;;;;14.18;7.85;;;;;;;28.67;53.22;98249.88;5390740;26;20111;-80
2022/06/05 07:09:24;;;;;;;12.75;7.25;;;;;;;29.05;52.36;98248.16;5390719;26;20050;-80
2022/06/05 07:11:51;;;;;;;12.10;7.60;;;;;;;27.96;54.36;98244.53;5390895;26;20127;-80
2022/06/05 07:14:18;;;;;;;15.05;7.97;;;;;;;28.69;54.36;98246.03;5371015;26;20056;-80
2022/06/05 07:16:45;;;;;;;13.13;7.82;;;;;;;27.99;55.95;98248.69;5390731;26;20107;-80
2022/06/05 07:19:12;;;;;;;13.68;7.97;;;;;;;28.76;53.83;98240.84;5390116;26;20058;-80
2022/06/05 07:21:39;;;;;;;11.85;7.57;;;;;;;29.02;54.63;98244.00;5391038;26;20056;-80
2022/06/05 07:24:06;;;;;;;12.70;7.60;;;;;;;28.46;54.14;98238.03;5390883;26;20055;-80
2022/06/05 07:26:33;;;;;;;12.37;7.03;;;;;;;30.07;50.57;98254.69;5390479;26;20079;-80
2022/06/05 07:29:00;;;;;;;11.73;7.10;;;;;;;30.30;50.19;98248.44;5390800;26;20087;-80
2022/06/05 07:31:29;;;;;;;11.57;6.25;;;;;;;30.36;51.21;98253.03;5391281;26;20135;-80
2022/06/05 07:33:57;;;;;;;12.52;7.50;;;;;;;29.85;51.91;98250.25;5390629;26;20534;-80
2022/06/05 07:36:26;;;;;;;13.20;7.40;;;;;;;28.90;56.08;98248.09;5390929;26;20100;-80
2022/06/05 07:38:53;;;;;;;13.02;6.72;;;;;;;30.20;53.93;98244.25;5390623;26;20096;-80
2022/06/05 07:41:28;;;;;;;12.05;6.78;;;;;;;29.88;51.87;98241.91;5390576;26;20134;-80
2022/06/05 07:43:55;;;;;;;12.32;5.60;;;;;;;30.20;52.33;98244.25;5390927;26;20122;-80
2022/06/05 07:46:23;;;;;;;11.00;6.28;;;;;;;31.14;48.28;98238.91;5390957;26;20063;-80
2022/06/05 07:48:50;;;;;;;11.05;5.40;;;;;;;29.29;49.30;98236.50;5390076;26;20062;-80
2022/06/05 07:54:27;;;;;;;12.57;6.85;;;;;;;29.80;51.15;98242.03;5390440;26;20111;-80
2022/06/05 07:56:56;;;;;;;15.68;6.47;;;;;;;30.73;50.80;98246.72;5390917;26;20044;-80
2022/06/05 07:59:25;;;;;;;11.15;6.90;;;;;;;30.94;49.25;98246.72;5390258;26;20115;-80
2022/06/05 08:01:59;;;;;;;11.60;7.00;;;;;;;30.72;48.01;98242.41;5391355;26;20119;-80
2022/06/05 08:04:27;;;;;;;13.57;6.37;;;;;;;31.68;45.24;98263.16;5391828;26;20311;-80
2022/06/05 08:06:57;;;;;;;11.12;6.37;;;;;;;32.20;46.79;98258.38;5391819;26;20044;-80
2022/06/05 08:09:25;;;;;;;11.55;7.03;;;;;;;31.96;45.58;98262.34;5391416;26;20052;-80
2022/06/05 08:11:52;;;;;;;12.00;6.90;;;;;;;30.71;45.90;98252.22;5391847;26;20059;-80
2022/06/05 08:14:19;;;;;;;14.32;7.05;;;;;;;32.02;45.15;98250.91;5391840;26;20417;-80
2022/06/05 08:16:46;;;;;;;11.15;6.78;;;;;;;31.66;47.72;98253.72;5390982;26;20435;-80
2022/06/05 08:19:16;;;;;;;12.15;7.18;;;;;;;31.91;45.83;98252.28;5391465;26;20075;-80
2022/06/05 08:21:43;;;;;;;12.90;7.55;;;;;;;32.30;43.89;98245.50;5391823;26;20164;-80
2022/06/05 08:24:10;;;;;;;11.80;7.87;;;;;;;30.09;49.88;98252.66;5391436;26;20109;-80
2022/06/05 08:26:38;;;;;;;13.20;8.70;;;;;;;30.88;49.86;98244.84;5391877;26;20394;-80
2022/06/05 08:29:05;;;;;;;13.43;8.10;;;;;;;31.27;47.19;98252.41;5391014;26;20115;-80
2022/06/05 08:31:33;;;;;;;14.23;8.32;;;;;;;31.59;45.68;98253.69;5391931;26;20091;-80
2022/06/05 08:34:03;;;;;;;14.13;8.55;;;;;;;30.19;50.09;98252.38;5371750;26;20402;-80
2022/06/05 08:36:31;;;;;;;15.55;9.35;;;;;;;31.14;48.70;98257.56;5391330;26;20119;-80
2022/06/05 08:42:27;;;;;;;14.30;9.30;;;;;;;30.56;50.86;98261.25;5391746;26;20459;-80
2022/06/05 08:45:01;;;;;;;14.25;8.98;;;;;;;31.29;47.13;98270.87;5371377;26;20158;-80
2022/06/05 08:47:32;;;;;;;15.32;8.70;;;;;;;31.23;47.15;98263.63;5371612;26;20461;-80
2022/06/05 08:50:12;;;;;;;13.18;8.48;;;;;;;30.68;49.38;98260.59;5371004;26;20407;-79
2022/06/05 08:52:49;;;;;;;13.70;8.10;;;;;;;31.05;47.56;98261.38;5391713;26;20111;-80
2022/06/05 08:55:24;;;;;;;15.77;9.27;;;;;;;31.17;47.85;98265.19;5391720;26;20063;-80
2022/06/05 08:58:00;;;;;;;16.30;9.67;;;;;;;30.81;50.81;98268.72;5371217;26;20067;-79
2022/06/05 09:00:41;;;;;;;17.20;10.05;;;;;;;30.74;51.48;98278.50;5391464;26;20111;-79
2022/06/05 09:03:33;;;;;;;16.73;9.30;;;;;;;31.76;48.29;98270.22;5391574;26;20059;-79
2022/06/05 09:06:09;;;;;;;16.90;9.30;;;;;;;30.71;51.48;98273.53;5391360;26;20064;-80
2022/06/05 09:08:39;;;;;;;11.50;6.72;;;;;;;31.04;50.29;98267.72;5371304;26;20052;-80
2022/06/05 09:11:12;;;;;;;14.70;8.10;;;;;;;31.84;46.63;98283.41;5370923;26;20075;-80
2022/06/05 09:14:20;;;;;;;11.77;5.65;;;;;;;32.55;46.06;98283.22;5371643;26;20064;-80
2022/06/05 09:16:54;;;;;;;14.82;8.40;;;;;;;31.63;47.62;98284.28;5391069;26;20055;-80
2022/06/05 09:19:27;;;;;;;12.43;6.97;;;;;;;31.93;46.11;98281.44;5390810;26;20434;-80
2022/06/05 09:22:00;;;;;;;12.93;8.20;;;;;;;31.99;44.01;98271.81;5391732;26;20126;-80
2022/06/05 09:24:30;;;;;;;14.27;8.18;;;;;;;31.66;47.65;98262.53;5391575;26;20104;-80
2022/06/05 09:27:02;;;;;;;13.70;8.68;;;;;;;30.26;50.22;98257.81;5391336;26;20393;-79
2022/06/05 09:29:35;;;;;;;12.35;7.45;;;;;;;30.20;52.29;98259.34;5391310;26;20072;-79
2022/06/05 09:32:17;;;;;;;14.90;8.88;;;;;;;30.52;50.99;98263.47;5391700;26;20464;-79
2022/06/05 09:34:53;;;;;;;14.65;9.60;;;;;;;29.79;52.84;98259.00;5391394;26;20128;-80
2022/06/05 09:37:43;;;;;;;14.23;8.43;;;;;;;30.93;49.20;98255.72;5371566;26;20067;-80
2022/06/05 09:40:16;;;;;;;15.48;8.52;;;;;;;30.69;49.63;98264.09;5391168;26;20071;-80
2022/06/05 09:43:20;;;;;;;12.77;7.75;;;;;;;31.01;48.66;98265.44;5391531;26;20114;-80
2022/06/05 09:46:20;;;;;;;11.88;7.43;;;;;;;31.78;47.12;98260.19;5391631;26;20056;-80
2022/06/05 09:48:52;;;;;;;11.15;6.95;;;;;;;32.24;46.59;98268.47;5391247;26;20181;-80
2022/06/05 09:51:19;;;;;;;12.48;6.72;;;;;;;32.81;45.62;98261.91;5371453;26;20061;-80
2022/06/05 09:53:56;;;;;;;14.30;8.70;;;;;;;31.85;45.74;98260.22;5370872;26;20402;-80
2022/06/05 10:00:08;;;;;;;12.45;7.80;;;;;;;31.45;47.03;98257.25;5391157;26;20115;-80
2022/06/05 10:02:36;;;;;;;11.40;7.20;;;;;;;32.13;44.22;98257.53;5371496;26;20755;-80
2022/06/05 10:05:24;;;;;;;11.10;5.80;;;;;;;32.50;44.05;98253.59;5391424;26;20406;-80
2022/06/05 10:07:57;;;;;;;11.98;7.70;;;;;;;31.79;44.89;98263.66;5390989;26;20115;-80
2022/06/05 10:10:27;;;;;;;11.82;7.87;;;;;;;32.20;45.86;98269.88;5391654;26;20063;-80
2022/06/05 10:13:13;;;;;;;12.07;7.68;;;;;;;31.54;46.67;98264.09;5391484;26;20154;-80
2022/06/05 10:15:48;;;;;;;13.30;7.78;;;;;;;32.57;42.87;98259.78;5370701;26;20055;-80
2022/06/05 10:18:34;;;;;;;12.27;7.82;;;;;;;32.70;43.76;98256.31;5371405;26;20133;-80
2022/06/05 10:21:22;;;;;;;11.12;6.80;;;;;;;32.65;44.45;98250.78;5371186;26;20138;-79
2022/06/05 10:24:05;;;;;;;10.27;6.05;;;;;;;31.94;46.24;98253.72;5371153;26;20115;-80
2022/06/05 10:26:35;;;;;;;14.63;7.43;;;;;;;31.77;45.32;98249.72;5371426;26;20052;-80
2022/06/05 10:29:15;;;;;;;11.77;6.90;;;;;;;32.40;44.63;98239.78;5370627;26;20421;-80
2022/06/05 10:31:52;;;;;;;11.77;7.00;;;;;;;31.48;44.48;98243.56;5371366;26;20405;-80
2022/06/05 10:34:24;;;;;;;11.82;6.85;;;;;;;31.02;46.79;98240.44;5371309;26;20051;-80
2022/06/05 10:37:16;;;;;;;13.93;7.87;;;;;;;31.77;44.44;98242.53;5370944;26;20086;-80
2022/06/05 10:39:58;;;;;;;15.50;5.87;;;;;;;31.98;45.64;98243.47;5390940;26;20090;-80
2022/06/05 10:42:34;;;;;;;13.07;7.62;;;;;;;31.51;47.30;98239.66;5390892;26;20079;-80
2022/06/05 10:45:06;;;;;;;11.32;6.90;;;;;;;31.57;47.83;98231.69;5371489;26;20115;-80
2022/06/05 10:47:47;;;;;;;12.85;8.00;;;;;;;32.31;44.21;98233.78;5371225;26;20079;-80
2022/06/05 10:50:19;;;;;;;13.10;7.47;;;;;;;32.62;43.25;98229.78;5370655;26;20079;-80
2022/06/05 10:53:04;;;;;;;11.63;6.90;;;;;;;31.45;46.03;98235.91;5391192;26;20107;-80
2022/06/05 10:55:42;;;;;;;11.52;7.53;;;;;;;31.62;44.03;98236.47;5391125;26;20056;-80
2022/06/05 10:58:24;;;;;;;14.27;7.28;;;;;;;31.21;46.11;98225.69;5390711;26;20418;-80
2022/06/05 11:00:56;;;;;;;12.05;7.03;;;;;;;31.32;47.28;98225.97;5390976;26;20108;-80
2022/06/05 11:03:56;;;;;;;10.75;6.00;;;;;;;30.71;46.59;98219.44;5371359;26;20072;-80
2022/06/05 11:06:45;;;;;;;12.15;6.47;;;;;;;31.14;48.95;98230.09;5364387;26;20717;-80
2022/06/05 11:09:40;;;;;;;11.60;7.53;;;;;;;31.28;47.96;98215.91;5370777;26;20130;-80
2022/06/05 11:15:34;;;;;;;11.15;7.00;;;;;;;31.59;46.65;98215.53;5391187;26;20087;-80
2022/06/05 11:18:13;;;;;;;10.85;7.37;;;;;;;31.80;44.06;98215.47;5370569;26;20102;-80
2022/06/05 11:20:42;;;;;;;14.68;9.15;;;;;;;32.23;47.12;98217.94;5370799;26;20706;-80
2022/06/05 11:23:13;;;;;;;14.68;10.05;;;;;;;31.25;49.09;98224.28;5390905;26;20086;-79
2022/06/05 11:26:04;;;;;;;14.50;9.02;;;;;;;29.86;52.48;98220.81;5370661;26;20064;-79
2022/06/05 11:28:37;;;;;;;14.73;9.18;;;;;;;29.88;52.47;98218.81;5371227;26;20104;-79
2022/06/05 11:31:32;;;;;;;14.82;9.55;;;;;;;30.33;52.13;98219.63;5390940;26;20130;-79
2022/06/05 11:34:20;;;;;;;14.93;9.25;;;;;;;30.72;50.98;98219.25;5391059;26;20064;-80
2022/06/05 11:36:52;;;;;;;13.85;8.52;;;;;;;31.71;49.66;98223.81;5392011;26;20103;-80
2022/06/05 11:39:32;;;;;;;13.68;7.82;;;;;;;31.24;49.38;98217.28;5391120;26;20055;-80
2022/06/05 11:42:18;;;;;;;12.00;7.80;;;;;;;32.18;46.79;98201.69;5371897;26;20108;-80
2022/06/05 11:45:03;;;;;;;11.32;6.68;;;;;;;32.21;44.86;98194.09;5371985;26;20150;-79
2022/06/05 11:47:51;;;;;;;11.23;6.82;;;;;;;31.37;46.49;98199.56;5391513;26;20072;-80
2022/06/05 11:50:30;;;;;;;13.27;7.93;;;;;;;31.18;47.41;98191.41;5391679;26;20111;-79
2022/06/05 11:53:36;;;;;;;12.50;7.10;;;;;;;30.63;49.64;98187.59;5391528;26;20130;-79
2022/06/05 11:56:30;;;;;;;12.32;7.53;;;;;;;30.06;50.65;98183.03;5345808;26;20152;-79
2022/06/05 11:59:49;;;;;;;11.50;7.25;;;;;;;30.76;47.96;98188.56;5391565;26;20074;-79
2022/06/05 12:02:53;;;;;;;11.85;7.18;;;;;;;30.66;51.38;98193.38;5341932;26;20047;-79
2022/06/05 12:05:36;;;;;;;11.60;7.05;;;;;;;30.68;47.54;98188.69;5391896;26;20048;-79
2022/06/05 12:08:09;;;;;;;12.52;8.23;;;;;;;30.43;49.26;98187.37;5391567;26;20072;-79
2022/06/05 12:10:48;;;;;;;12.98;7.07;;;;;;;30.95;48.25;98191.62;5371720;26;20421;-79
2022/06/05 12:13:47;;;;;;;14.18;8.43;;;;;;;31.17;50.82;98192.41;5371887;26;20743;-79
2022/06/05 12:16:22;;;;;;;13.43;7.82;;;;;;;30.98;49.04;98197.38;5371491;26;20068;-79